createdAt,value
2019-03-31T00:00:10.188Z,10.38
2019-03-31T00:05:17.208Z,10.26
2019-03-31T00:10:22.707Z,10.25
2019-03-31T00:15:28.232Z,10.22
2019-03-31T00:20:33.464Z,10.22
2019-03-31T00:25:40.376Z,10.19
2019-03-31T00:30:45.921Z,10.13
2019-03-31T00:35:51.340Z,10.17
2019-03-31T00:40:57.007Z,10.12
2019-03-31T00:46:02.504Z,10.14
2019-03-31T00:51:07.830Z,10.07
2019-03-31T00:56:13.214Z,10.06
2019-03-31T01:01:20.531Z,10.04
2019-03-31T01:06:29.056Z,10.07
2019-03-31T01:11:34.826Z,10.08
2019-03-31T01:16:40.184Z,10.21
2019-03-31T01:21:45.846Z,10.22
2019-03-31T01:26:51.413Z,10.31
2019-03-31T01:31:57.250Z,10.36
2019-03-31T01:37:02.651Z,10.38
2019-03-31T01:42:08.191Z,10.29
2019-03-31T01:47:14.284Z,10.26
2019-03-31T01:52:19.743Z,10.26
2019-03-31T01:57:26.784Z,10.19
2019-03-31T02:02:32.464Z,10.24
2019-03-31T02:07:38.067Z,10.18
2019-03-31T02:12:43.877Z,10.10
2019-03-31T02:17:49.240Z,9.99
2019-03-31T02:22:54.991Z,10.00
2019-03-31T02:28:00.237Z,9.94
2019-03-31T02:38:17.735Z,9.97
2019-03-31T02:43:23.669Z,9.94
2019-03-31T02:48:29.143Z,9.92
2019-03-31T02:53:35.364Z,9.91
2019-03-31T02:58:41.189Z,9.80
2019-03-31T03:03:48.383Z,9.79
2019-03-31T03:08:55.757Z,9.73
2019-03-31T03:14:04.037Z,9.72
2019-03-31T03:19:09.587Z,9.74
2019-03-31T03:24:14.963Z,9.73
2019-03-31T03:29:20.508Z,9.60
2019-03-31T03:34:25.869Z,9.59
2019-03-31T03:39:31.218Z,9.58
2019-03-31T03:44:36.590Z,9.56
2019-03-31T03:49:41.945Z,9.48
2019-03-31T03:54:47.119Z,9.45
2019-03-31T03:59:52.437Z,9.41
2019-03-31T04:04:57.604Z,9.29
2019-03-31T04:10:02.911Z,9.24
2019-03-31T04:15:08.324Z,9.16
2019-03-31T04:20:13.990Z,9.06
2019-03-31T04:25:19.280Z,9.03
2019-03-31T04:30:24.649Z,8.96
2019-03-31T04:35:30.171Z,8.89
2019-03-31T04:40:35.436Z,8.83
2019-03-31T04:45:40.781Z,8.70
2019-03-31T04:50:46.261Z,8.65
2019-03-31T04:55:51.699Z,8.59
2019-03-31T05:00:57.057Z,8.56
2019-03-31T05:06:02.515Z,8.59
2019-03-31T05:11:07.881Z,8.57
2019-03-31T05:16:13.236Z,8.49
2019-03-31T05:21:18.699Z,8.48
2019-03-31T05:26:24.177Z,8.50
2019-03-31T05:31:30.031Z,8.53
2019-03-31T05:36:35.503Z,8.62
2019-03-31T05:41:41.034Z,8.85
2019-03-31T05:46:46.566Z,8.82
2019-03-31T05:51:51.861Z,8.87
2019-03-31T05:56:57.570Z,8.72
2019-03-31T06:02:03.420Z,8.75
2019-03-31T06:07:08.810Z,8.76
2019-03-31T06:12:14.145Z,8.74
2019-03-31T06:17:19.490Z,9.02
2019-03-31T06:22:24.915Z,9.02
2019-03-31T06:27:30.537Z,9.30
2019-03-31T06:32:35.987Z,9.38
2019-03-31T06:37:41.239Z,9.56
2019-03-31T06:42:46.712Z,9.62
2019-03-31T06:47:52.441Z,9.62
2019-03-31T06:52:58.249Z,9.66
2019-03-31T06:58:03.595Z,9.34
2019-03-31T07:03:08.871Z,9.27
2019-03-31T07:08:14.199Z,9.18
2019-03-31T07:13:20.433Z,9.18
2019-03-31T07:18:26.040Z,9.20
2019-03-31T07:23:31.514Z,9.35
2019-03-31T07:28:37.184Z,9.07
2019-03-31T07:33:42.648Z,9.10
2019-03-31T07:38:48.476Z,9.03
2019-03-31T07:43:54.267Z,9.07
2019-03-31T07:48:59.527Z,9.25
2019-03-31T07:54:05.509Z,9.23
2019-03-31T07:59:10.765Z,9.44
2019-03-31T08:04:16.115Z,9.71
2019-03-31T08:09:21.633Z,9.72
2019-03-31T08:14:26.788Z,9.58
2019-03-31T08:19:32.495Z,9.60
2019-03-31T08:24:43.801Z,9.83
2019-03-31T08:29:59.910Z,9.88
2019-03-31T08:34:56.525Z,9.97
2019-03-31T08:40:02.210Z,9.91
2019-03-31T08:45:08.933Z,10.00
2019-03-31T08:50:14.903Z,10.17
2019-03-31T08:55:20.252Z,10.26
2019-03-31T09:00:27.552Z,10.49
2019-03-31T09:05:33.538Z,10.22
2019-03-31T09:10:38.824Z,10.47
2019-03-31T09:15:44.259Z,10.52
2019-03-31T09:20:51.037Z,10.11
2019-03-31T09:25:56.787Z,10.36
2019-03-31T09:31:02.580Z,10.30
2019-03-31T09:36:15.996Z,10.15
2019-03-31T09:41:16.065Z,10.00
2019-03-31T09:46:21.236Z,10.34
2019-03-31T09:51:26.884Z,10.10
2019-03-31T09:56:32.261Z,10.11
2019-03-31T10:01:37.631Z,10.44
2019-03-31T10:06:43.787Z,10.92
2019-03-31T10:11:49.444Z,10.72
2019-03-31T10:16:55.046Z,10.64
2019-03-31T10:22:00.486Z,10.36
2019-03-31T10:27:05.818Z,10.40
2019-03-31T10:32:11.349Z,11.15
2019-03-31T10:37:17.382Z,11.57
2019-03-31T10:42:23.000Z,11.46
2019-03-31T10:47:28.400Z,11.40
2019-03-31T10:52:33.798Z,11.84
2019-03-31T10:57:39.309Z,11.09
2019-03-31T11:02:44.781Z,11.18
2019-03-31T11:07:50.746Z,11.42
2019-03-31T11:12:55.907Z,11.80
2019-03-31T11:18:02.390Z,11.45
2019-03-31T11:23:18.922Z,10.87
2019-03-31T11:28:24.375Z,11.16
2019-03-31T11:33:30.236Z,11.41
2019-03-31T11:38:35.599Z,11.30
2019-03-31T11:43:41.223Z,11.34
2019-03-31T11:48:46.681Z,11.58
2019-03-31T11:53:53.728Z,11.31
2019-03-31T11:58:59.273Z,11.19
2019-03-31T12:04:05.585Z,11.03
2019-03-31T12:09:11.034Z,11.25
2019-03-31T12:14:16.500Z,11.46
2019-03-31T12:19:21.936Z,11.28
2019-03-31T12:24:27.610Z,11.51
2019-03-31T12:29:52.076Z,10.92
2019-03-31T12:34:58.069Z,11.25
2019-03-31T12:40:04.935Z,11.19
2019-03-31T12:45:10.421Z,11.04
2019-03-31T12:50:15.633Z,10.93
2019-03-31T12:55:20.854Z,11.15
2019-03-31T13:00:26.228Z,11.01
2019-03-31T13:05:31.588Z,11.00
2019-03-31T13:10:36.926Z,10.98
2019-03-31T13:15:42.273Z,11.26
2019-03-31T13:20:47.771Z,11.40
2019-03-31T13:25:53.260Z,11.94
2019-03-31T13:30:58.719Z,12.47
2019-03-31T13:36:04.864Z,12.09
2019-03-31T13:41:10.325Z,11.40
2019-03-31T13:46:15.782Z,11.02
2019-03-31T13:51:21.133Z,12.60
2019-03-31T13:56:27.259Z,13.41
2019-03-31T14:01:33.484Z,14.07
2019-03-31T14:06:38.780Z,14.38
2019-03-31T14:11:44.421Z,12.81
2019-03-31T14:16:49.769Z,10.74
2019-03-31T14:21:55.252Z,10.58
2019-03-31T14:27:00.610Z,12.14
2019-03-31T14:32:06.032Z,12.00
2019-03-31T14:37:11.725Z,12.06
2019-03-31T14:42:17.285Z,12.36
2019-03-31T14:47:22.838Z,13.93
2019-03-31T14:52:28.124Z,15.60
2019-03-31T14:57:33.934Z,15.80
2019-03-31T15:02:39.222Z,15.50
2019-03-31T15:07:44.578Z,13.83
2019-03-31T15:12:49.972Z,13.30
2019-03-31T15:17:55.408Z,15.55
2019-03-31T15:23:00.774Z,15.78
2019-03-31T15:28:06.395Z,15.44
2019-03-31T15:33:11.824Z,15.20
2019-03-31T15:38:17.671Z,14.53
2019-03-31T15:43:22.941Z,13.65
2019-03-31T15:48:28.512Z,12.66
2019-03-31T15:53:33.881Z,11.20
2019-03-31T15:58:39.408Z,10.78
2019-03-31T16:03:44.695Z,10.70
2019-03-31T16:08:50.233Z,10.08
2019-03-31T16:13:56.517Z,9.93
2019-03-31T16:19:03.130Z,10.13
2019-03-31T16:24:08.859Z,9.87
2019-03-31T16:29:14.865Z,9.78
2019-03-31T16:34:20.286Z,9.70
2019-03-31T16:39:36.842Z,9.71
2019-03-31T16:44:32.855Z,9.40
2019-03-31T16:49:38.024Z,9.26
2019-03-31T16:54:43.558Z,9.36
2019-03-31T16:59:48.813Z,8.98
2019-03-31T17:04:54.070Z,8.74
2019-03-31T17:09:59.634Z,8.78
2019-03-31T17:15:07.618Z,8.74
2019-03-31T17:20:13.320Z,8.68
2019-03-31T17:25:18.898Z,8.60
2019-03-31T17:30:24.335Z,8.45
2019-03-31T17:35:29.932Z,8.24
2019-03-31T17:40:35.618Z,8.30
2019-03-31T17:45:41.113Z,8.12
2019-03-31T17:50:46.610Z,8.13
2019-03-31T17:55:51.984Z,8.08
2019-03-31T18:00:57.278Z,7.82
2019-03-31T18:06:02.695Z,7.44
2019-03-31T18:11:08.040Z,7.02
2019-03-31T18:16:13.255Z,6.70
2019-03-31T18:21:18.453Z,6.49
2019-03-31T18:26:23.843Z,6.46
2019-03-31T18:31:29.650Z,6.32
2019-03-31T18:36:37.008Z,6.26
2019-03-31T18:41:42.356Z,6.24
2019-03-31T18:46:47.822Z,6.30
2019-03-31T18:51:53.113Z,6.34
2019-03-31T18:57:16.993Z,6.49
2019-03-31T19:02:29.900Z,6.50
2019-03-31T19:07:52.691Z,6.48
2019-03-31T19:13:18.155Z,6.57
2019-03-31T19:18:27.933Z,6.45
2019-03-31T19:23:50.931Z,6.46
2019-03-31T19:29:06.635Z,6.34
2019-03-31T19:34:13.885Z,6.36
2019-03-31T19:39:26.701Z,6.29
2019-03-31T19:44:49.605Z,6.14
2019-03-31T19:49:56.367Z,6.06
2019-03-31T19:55:05.903Z,5.89
2019-03-31T20:00:13.804Z,5.79
2019-03-31T20:05:32.989Z,5.79
2019-03-31T20:10:42.959Z,5.81
2019-03-31T20:15:56.099Z,5.83
2019-03-31T20:21:03.225Z,5.81
2019-03-31T20:26:26.804Z,5.75
2019-03-31T20:31:50.277Z,5.70
2019-03-31T20:37:08.987Z,5.48
2019-03-31T20:42:31.843Z,5.52
2019-03-31T20:47:37.364Z,5.34
2019-03-31T20:52:43.049Z,5.20
2019-03-31T20:57:48.703Z,5.20
2019-03-31T21:02:54.053Z,5.10
2019-03-31T21:07:59.934Z,4.85
2019-03-31T21:13:05.365Z,4.80
2019-03-31T21:18:10.648Z,4.56
2019-03-31T21:23:16.009Z,4.67
2019-03-31T21:28:21.767Z,4.73
2019-03-31T21:33:27.034Z,4.41
2019-03-31T21:38:32.555Z,4.27
2019-03-31T21:43:37.839Z,4.35
2019-03-31T21:48:43.446Z,4.34
2019-03-31T21:53:48.879Z,4.03
2019-03-31T21:58:54.301Z,4.15
2019-03-31T22:03:59.597Z,4.18
2019-03-31T22:09:08.335Z,3.90
2019-03-31T22:14:13.533Z,3.98
2019-03-31T22:19:19.111Z,3.74
2019-03-31T22:24:24.383Z,3.67
2019-03-31T22:29:29.811Z,3.56
2019-03-31T22:34:35.278Z,3.41
2019-03-31T22:39:40.895Z,3.42
2019-03-31T22:44:46.375Z,3.46
2019-03-31T22:49:52.121Z,3.48
2019-03-31T22:54:57.678Z,3.52
2019-03-31T23:00:03.144Z,3.61
2019-03-31T23:05:10.360Z,3.75
2019-03-31T23:10:16.939Z,3.81
2019-03-31T23:15:22.627Z,3.77
2019-03-31T23:20:28.162Z,3.90
2019-03-31T23:25:33.366Z,3.71
2019-03-31T23:30:38.740Z,3.71
2019-03-31T23:35:44.034Z,3.86
2019-03-31T23:40:49.294Z,4.03
2019-03-31T23:45:54.556Z,4.07
2019-03-31T23:50:59.902Z,4.23
2019-03-31T23:56:05.242Z,4.41
